Airfield :
LOGIN :

Register | Disclaimer

   EN    FR    IT 

 










Legend :    VFR   Marginal VFR   IFR   Intensive IFR   Very Intensive IFR
Visi :
Ceiling :
>= 8 km
>= 3000ft
5 to 8 km
1000 to 3000 ft
1500m to 5 km
500 to 1000 ft
800 to 1500m
200 to 500 ft
< 800m
< 200 ft
Symbols :   Thunderstorms  Fog  Heavy snow  Heavy precipitations  Wind > 20 kt
SIGMETs :     Misc.  Thunderstorms  Icing  Turbulence  Mountain Waves  Volcanic Ashes






- Airport Elevation : 266 ft
- IATA code : NCL


EGNT - Newcastle

CURRENT METAR :
  • 021820Z 11005KT 070V180 9999 SCT035 16/10 Q1013

EXPIRED METARs :
  • 021720Z 13004KT 080V180 9999 SCT035 16/10 Q1013
  • 021650Z 13004KT 070V190 9999 SCT035 17/10 Q1013
  • 021620Z 12005KT 060V180 9999 SCT035 17/10 Q1013
  • 021550Z VRB03KT 9999 SCT035 17/10 Q1013
  • 021520Z 12005KT 080V190 9999 SCT035 17/10 Q1013

TAF TAF EGNT
Valid from the 02 at 18:00 until the 03 at 18:00 UTC


021702Z 0218/0318 13004KT 9999 SCT035
PROB30 0302/0306 8000
ATIS : +44 191 214 3400



MET'MAP, your aeronautical weather chart ! - Copyright ORBIFLY December 2007 - Disclaimer

ORBIFLY MET'MAP TEAM :

Programming & Development : Alexandra Zaïnal
Concept & original design : Baudouin d'Aumeries
Assistance for programming : Marc-Olivier Méhu
Technical & hardware support : Manuel Goepfert

Contact : metmap@orbifly.com




SOURCES & CREDITS :

   NOAA